Time;durP1;ratioP1;P1;durP2;ratioP2;P2;SDS_P1;SDS_P2;PMS_P1;PMS_P2;Temp;Humidity;BMP_temperature;BMP_pressure;BME280_temperature;BME280_humidity;BME280_pressure;Samples;Min_cycle;Max_cycle;Signal;HPM_P1;HPM_P2
2021/05/15 10:16:22;;;;;;;5.60;3.55;;;28.30;48.90;;;;;;4861001;29;20057;-75
2021/05/15 10:18:49;;;;;;;6.65;3.40;;;28.20;48.30;;;;;;4845640;29;20045;-75
2021/05/15 10:21:15;;;;;;;5.85;2.85;;;28.20;48.80;;;;;;4861744;29;20045;-79
2021/05/15 10:23:43;;;;;;;6.38;3.22;;;28.10;47.60;;;;;;4862209;29;20033;-76
2021/05/15 10:26:15;;;;;;;7.78;3.20;;;28.00;47.10;;;;;;4861934;29;20041;-79
2021/05/15 10:28:43;;;;;;;4.40;2.80;;;27.90;46.10;;;;;;4861750;29;20517;-78
2021/05/15 10:31:14;;;;;;;7.97;2.70;;;27.90;45.20;;;;;;4845822;29;20119;-77
2021/05/15 10:33:42;;;;;;;4.18;2.55;;;27.80;44.30;;;;;;4862088;29;20535;-77
2021/05/15 10:36:24;;;;;;;7.30;2.40;;;27.90;43.80;;;;;;4845165;29;20039;-78
2021/05/15 10:38:52;;;;;;;6.85;2.40;;;27.90;43.20;;;;;;4845908;29;20320;-77
2021/05/15 10:41:20;;;;;;;5.32;2.00;;;28.00;43.90;;;;;;4845406;29;20037;-78
2021/05/15 10:43:49;;;;;;;3.15;2.00;;;28.00;42.90;;;;;;4861852;29;20044;-78
2021/05/15 10:46:25;;;;;;;3.15;2.00;;;28.00;42.60;;;;;;4861840;29;20043;-78
2021/05/15 10:48:55;;;;;;;3.00;2.03;;;28.00;43.20;;;;;;4845647;29;20405;-77
2021/05/15 10:51:45;;;;;;;7.00;2.10;;;28.00;43.50;;;;;;4859939;29;20052;-77
2021/05/15 10:54:15;;;;;;;6.15;2.05;;;28.00;43.00;;;;;;4861260;29;20398;-75
2021/05/15 10:56:43;;;;;;;8.35;1.98;;;28.00;42.80;;;;;;4844445;29;20045;-78
2021/05/15 10:59:19;;;;;;;3.42;1.98;;;27.90;42.80;;;;;;4844620;29;20033;-75
2021/05/15 11:01:53;;;;;;;5.18;1.95;;;27.90;42.00;;;;;;4859681;29;20053;-77
2021/05/15 11:04:26;;;;;;;3.73;1.63;;;27.90;41.40;;;;;;4844584;29;20512;-77
2021/05/15 11:06:57;;;;;;;4.32;2.15;;;27.90;41.80;;;;;;4844763;29;20496;-76
2021/05/15 11:09:25;;;;;;;2.53;1.90;;;27.90;41.50;;;;;;4844315;29;20076;-77
2021/05/15 11:11:52;;;;;;;2.50;1.48;;;27.90;41.60;;;;;;4813822;29;20132;-77
2021/05/15 11:14:30;;;;;;;4.55;1.65;;;27.80;41.00;;;;;;4860201;29;20069;-77
2021/05/15 11:17:31;;;;;;;3.65;1.67;;;27.80;40.50;;;;;;4861290;29;20414;-76
2021/05/15 11:19:59;;;;;;;3.80;1.67;;;27.70;40.10;;;;;;4829056;29;20033;-76
2021/05/15 11:22:50;;;;;;;2.42;1.60;;;27.60;39.20;;;;;;4844434;29;20494;-75
2021/05/15 11:25:26;;;;;;;3.72;1.40;;;27.50;39.90;;;;;;4860655;29;20049;-77
2021/05/15 11:27:58;;;;;;;3.80;1.67;;;27.50;40.00;;;;;;4859790;29;20037;-77
2021/05/15 11:30:30;;;;;;;2.83;1.42;;;27.50;40.20;;;;;;4844154;29;20041;-77
2021/05/15 11:33:25;;;;;;;3.40;1.50;;;27.40;40.40;;;;;;4844338;29;20045;-77
2021/05/15 11:35:54;;;;;;;8.30;1.63;;;27.40;40.30;;;;;;4847391;29;20033;-76
2021/05/15 11:38:28;;;;;;;4.32;2.03;;;27.40;40.10;;;;;;4843682;29;20391;-77
2021/05/15 11:40:56;;;;;;;6.82;1.98;;;27.40;40.40;;;;;;4843796;29;20045;-76
2021/05/15 11:43:21;;;;;;;3.58;1.58;;;27.40;40.30;;;;;;4843838;29;20048;-77
2021/05/15 11:45:50;;;;;;;4.88;1.70;;;27.30;40.50;;;;;;4860638;29;20042;-77
2021/05/15 11:48:22;;;;;;;3.85;1.60;;;27.40;40.80;;;;;;4844071;29;20043;-77
2021/05/15 11:51:10;;;;;;;3.25;1.45;;;27.40;40.80;;;;;;4860373;29;20132;-78
2021/05/15 11:53:41;;;;;;;5.55;1.70;;;27.30;40.70;;;;;;4859700;29;20577;-78
2021/05/15 11:56:15;;;;;;;5.15;1.60;;;27.20;40.80;;;;;;4844415;29;20085;-77
2021/05/15 11:58:52;;;;;;;3.60;1.52;;;27.10;40.80;;;;;;4828661;29;20069;-78
2021/05/15 12:01:20;;;;;;;2.65;1.55;;;27.00;41.10;;;;;;4844010;29;20477;-78
2021/05/15 12:03:47;;;;;;;3.42;1.88;;;27.00;41.30;;;;;;4860021;29;20490;-78
2021/05/15 12:06:15;;;;;;;7.22;1.55;;;26.90;41.30;;;;;;4843735;29;20094;-80
2021/05/15 12:08:42;;;;;;;2.92;1.30;;;27.00;41.20;;;;;;4861207;29;20406;-78
2021/05/15 12:11:09;;;;;;;3.40;1.48;;;26.90;40.60;;;;;;4860589;29;20041;-78
2021/05/15 12:13:35;;;;;;;4.78;1.90;;;26.80;39.90;;;;;;4859979;29;20064;-84
2021/05/15 12:16:03;;;;;;;4.35;1.83;;;26.80;40.30;;;;;;4860976;29;20091;-81
2021/05/15 12:18:30;;;;;;;3.80;1.42;;;26.80;40.40;;;;;;4844281;29;20089;-86
2021/05/15 12:20:56;;;;;;;3.60;1.60;;;26.80;40.60;;;;;;4844757;29;20494;-85
2021/05/15 12:23:28;;;;;;;4.70;1.80;;;26.80;41.00;;;;;;4860183;29;20101;-79
2021/05/15 12:26:07;;;;;;;4.50;1.52;;;26.70;41.10;;;;;;4847753;29;20052;-87
2021/05/15 12:28:45;;;;;;;5.28;1.77;;;26.60;41.60;;;;;;4847339;29;20046;-75
2021/05/15 12:31:28;;;;;;;4.40;1.63;;;26.70;41.80;;;;;;4862922;29;20182;-79
2021/05/15 12:33:57;;;;;;;4.65;1.50;;;26.60;41.30;;;;;;4847931;29;20057;-79
2021/05/15 12:36:24;;;;;;;5.38;2.13;;;26.60;41.40;;;;;;4862478;29;20494;-79
2021/05/15 12:38:52;;;;;;;3.40;1.85;;;26.60;41.20;;;;;;4847115;29;20541;-77
2021/05/15 12:41:20;;;;;;;5.88;2.13;;;26.50;41.40;;;;;;4846798;29;20418;-77
2021/05/15 12:43:47;;;;;;;6.65;1.67;;;26.60;41.70;;;;;;4831466;29;20128;-76
2021/05/15 12:46:16;;;;;;;5.60;1.70;;;26.60;41.90;;;;;;4863357;29;20045;-80
2021/05/15 12:48:52;;;;;;;4.75;1.83;;;26.60;42.00;;;;;;4863319;29;20340;-80
2021/05/15 12:51:25;;;;;;;9.50;2.05;;;26.50;42.10;;;;;;4862399;29;20106;-84
2021/05/15 12:53:51;;;;;;;8.75;2.75;;;26.60;43.40;;;;;;4847499;29;20077;-80
2021/05/15 12:56:31;;;;;;;14.82;2.47;;;26.70;43.50;;;;;;4847604;29;20034;-83
2021/05/15 12:58:57;;;;;;;10.68;2.28;;;26.70;43.50;;;;;;4847091;29;20488;-70
2021/05/15 13:01:24;;;;;;;17.60;2.50;;;26.60;43.40;;;;;;4862640;29;20038;-71
2021/05/15 13:03:51;;;;;;;18.83;2.30;;;26.40;43.60;;;;;;4861554;29;20052;-70
2021/05/15 13:06:22;;;;;;;14.80;2.33;;;26.30;44.10;;;;;;4846227;29;20096;-69
2021/05/15 13:08:53;;;;;;;11.63;2.60;;;26.10;44.40;;;;;;4846213;29;20555;-70
2021/05/15 13:11:19;;;;;;;12.90;2.20;;;26.10;45.20;;;;;;4863439;29;20086;-70
2021/05/15 13:13:47;;;;;;;14.43;1.95;;;26.00;45.40;;;;;;4846211;29;20520;-71
2021/05/15 13:16:14;;;;;;;13.75;2.35;;;25.80;45.40;;;;;;4830920;29;20063;-70
2021/05/15 13:18:41;;;;;;;8.05;2.30;;;25.80;47.10;;;;;;4862611;29;20136;-80
2021/05/15 13:21:08;;;;;;;9.38;2.58;;;25.70;48.40;;;;;;4847053;29;20507;-82
2021/05/15 13:23:35;;;;;;;10.90;2.30;;;25.60;48.90;;;;;;4861728;29;20167;-81
2021/05/15 13:26:02;;;;;;;13.40;2.25;;;25.40;49.20;;;;;;4846570;29;20106;-78
2021/05/15 13:28:28;;;;;;;12.98;2.67;;;25.50;49.30;;;;;;4846505;29;20041;-79
2021/05/15 13:30:54;;;;;;;8.50;2.67;;;25.40;48.90;;;;;;4846364;29;20049;-74
2021/05/15 13:33:21;;;;;;;13.68;2.75;;;25.30;49.10;;;;;;4845905;29;20141;-75
2021/05/15 13:35:47;;;;;;;8.00;2.35;;;25.10;49.30;;;;;;4845305;29;20037;-72
2021/05/15 13:38:13;;;;;;;12.02;2.72;;;25.10;49.30;;;;;;4862897;29;20041;-71
2021/05/15 13:40:40;;;;;;;6.75;2.22;;;25.00;49.50;;;;;;4861132;29;20156;-73
2021/05/15 13:43:06;;;;;;;4.47;2.10;;;24.90;49.60;;;;;;4862171;29;20414;-76
2021/05/15 13:45:32;;;;;;;9.30;2.47;;;24.70;49.70;;;;;;4862449;29;20383;-78
2021/05/15 13:47:59;;;;;;;8.55;2.10;;;24.70;49.80;;;;;;4861343;29;20096;-77
2021/05/15 13:50:29;;;;;;;5.63;2.22;;;24.60;50.00;;;;;;4830414;29;20413;-79
2021/05/15 13:52:56;;;;;;;11.00;2.60;;;24.60;50.30;;;;;;4844207;29;20052;-78
2021/05/15 13:55:22;;;;;;;4.57;2.33;;;24.50;50.70;;;;;;4862414;29;20512;-73
2021/05/15 13:57:48;;;;;;;9.20;2.60;;;24.30;51.20;;;;;;4862214;29;20049;-72
2021/05/15 14:00:15;;;;;;;9.43;2.78;;;24.20;53.10;;;;;;4845822;29;20041;-71
2021/05/15 14:02:41;;;;;;;8.35;2.50;;;24.20;55.60;;;;;;4845235;29;20052;-72
2021/05/15 14:05:11;;;;;;;9.80;3.13;;;24.30;55.70;;;;;;4845365;29;20037;-72
2021/05/15 14:07:38;;;;;;;9.60;2.78;;;24.30;56.40;;;;;;4829709;29;20128;-75
2021/05/15 14:10:07;;;;;;;9.18;2.63;;;24.40;56.30;;;;;;4829556;29;20509;-75
2021/05/15 14:12:33;;;;;;;9.38;3.13;;;24.50;56.40;;;;;;4829050;29;20045;-74
2021/05/15 14:15:00;;;;;;;9.40;3.20;;;24.60;57.00;;;;;;4845311;29;20072;-73
2021/05/15 14:17:26;;;;;;;14.40;2.75;;;24.60;57.60;;;;;;4845064;29;20498;-73
2021/05/15 14:19:52;;;;;;;8.65;3.15;;;24.60;57.50;;;;;;4861315;29;20128;-70
2021/05/15 14:22:19;;;;;;;13.48;4.53;;;24.60;57.80;;;;;;4861541;29;20124;-72
2021/05/15 14:24:45;;;;;;;10.05;3.88;;;24.60;57.80;;;;;;4844702;29;20037;-75
2021/05/15 14:27:11;;;;;;;8.07;3.90;;;24.60;57.80;;;;;;4861571;29;20053;-75
2021/05/15 14:29:36;;;;;;;16.65;3.58;;;24.50;58.00;;;;;;4845330;29;20502;-76
2021/05/15 14:32:03;;;;;;;9.32;3.47;;;24.50;58.30;;;;;;4844944;29;20080;-76
2021/05/15 14:34:29;;;;;;;6.82;3.45;;;24.50;57.50;;;;;;4861434;29;20104;-75
2021/05/15 14:36:55;;;;;;;7.95;3.38;;;24.60;57.60;;;;;;4861068;29;20049;-77
2021/05/15 14:39:21;;;;;;;8.07;3.53;;;24.60;57.90;;;;;;4860969;29;20033;-75
2021/05/15 14:41:48;;;;;;;13.18;3.60;;;24.70;57.50;;;;;;4844781;29;20463;-74
2021/05/15 14:44:15;;;;;;;10.70;3.50;;;24.70;57.60;;;;;;4861378;29;20050;-73
2021/05/15 14:46:43;;;;;;;10.48;3.65;;;24.70;57.10;;;;;;4861226;29;20586;-73
2021/05/15 14:49:09;;;;;;;6.72;3.72;;;24.60;57.40;;;;;;4844620;29;20042;-74
2021/05/15 14:51:36;;;;;;;14.98;4.28;;;24.60;57.40;;;;;;4859628;29;20566;-73
2021/05/15 14:54:02;;;;;;;6.88;3.85;;;24.60;57.70;;;;;;4858939;29;20033;-74
2021/05/15 14:56:28;;;;;;;8.95;3.63;;;24.40;58.20;;;;;;4858654;29;20546;-75
2021/05/15 14:58:54;;;;;;;10.45;3.65;;;24.40;59.20;;;;;;4860520;29;20053;-74
2021/05/15 15:01:20;;;;;;;9.10;3.35;;;24.40;59.40;;;;;;4861436;29;20067;-73
2021/05/15 15:03:48;;;;;;;5.15;3.05;;;24.30;59.70;;;;;;4860808;29;20029;-74
2021/05/15 15:06:14;;;;;;;5.82;3.15;;;24.20;59.20;;;;;;4860764;29;20574;-72
2021/05/15 15:08:41;;;;;;;6.28;3.40;;;24.10;59.80;;;;;;4829270;29;20057;-72
2021/05/15 15:11:08;;;;;;;5.13;3.10;;;24.00;60.00;;;;;;4860837;29;20499;-74
2021/05/15 15:13:34;;;;;;;6.53;4.10;;;23.90;60.20;;;;;;4844266;29;20045;-74
2021/05/15 15:16:02;;;;;;;9.13;4.00;;;23.80;60.60;;;;;;4860858;29;20172;-74
2021/05/15 15:18:29;;;;;;;7.20;4.25;;;23.80;61.60;;;;;;4860996;29;20120;-75
2021/05/15 15:20:55;;;;;;;10.40;4.50;;;23.70;62.10;;;;;;4860697;29;20132;-75
2021/05/15 15:23:21;;;;;;;6.72;4.25;;;23.60;61.90;;;;;;4844555;29;20049;-75
2021/05/15 15:25:48;;;;;;;7.38;3.78;;;23.60;62.30;;;;;;4860933;29;20041;-75
2021/05/15 15:28:15;;;;;;;8.52;3.85;;;23.60;62.20;;;;;;4843986;29;20042;-74
2021/05/15 15:30:42;;;;;;;7.70;3.80;;;23.60;62.30;;;;;;4859285;29;20038;-74
2021/05/15 15:33:11;;;;;;;5.88;3.80;;;23.60;62.60;;;;;;4828937;29;20045;-77
2021/05/15 15:35:37;;;;;;;8.90;4.30;;;23.60;63.00;;;;;;4843779;29;20124;-76
2021/05/15 15:38:03;;;;;;;8.95;4.30;;;23.50;63.50;;;;;;4844080;29;20048;-75
2021/05/15 15:40:29;;;;;;;6.55;3.95;;;23.50;63.70;;;;;;4828600;29;20101;-74
2021/05/15 15:42:56;;;;;;;9.07;4.43;;;23.50;63.90;;;;;;4860584;29;20037;-76
2021/05/15 15:45:22;;;;;;;9.55;4.72;;;23.40;64.90;;;;;;4843573;29;20041;-76
2021/05/15 15:47:48;;;;;;;5.88;4.18;;;23.40;64.40;;;;;;4860718;29;20045;-80
2021/05/15 15:50:14;;;;;;;8.43;4.20;;;23.40;64.30;;;;;;4844309;29;20044;-77
2021/05/15 15:52:41;;;;;;;7.75;5.18;;;23.40;64.10;;;;;;4860544;29;20080;-81
2021/05/15 15:55:09;;;;;;;9.00;4.22;;;23.40;64.80;;;;;;4829528;29;20041;-80
2021/05/15 15:57:35;;;;;;;8.05;4.25;;;23.40;64.50;;;;;;4860655;29;20080;-79
2021/05/15 16:00:02;;;;;;;7.07;3.95;;;23.40;63.80;;;;;;4859442;29;20092;-79
2021/05/15 16:02:30;;;;;;;6.80;3.67;;;23.50;63.30;;;;;;4860646;29;20508;-77
2021/05/15 16:04:57;;;;;;;7.45;3.30;;;23.50;62.30;;;;;;4844138;29;20045;-77
2021/05/15 16:07:23;;;;;;;6.45;2.78;;;23.60;61.70;;;;;;4860593;29;20486;-77
2021/05/15 16:09:50;;;;;;;4.35;2.63;;;23.60;60.60;;;;;;4860413;29;20494;-79
2021/05/15 16:12:17;;;;;;;3.22;2.60;;;23.60;59.90;;;;;;4860028;29;20073;-76
2021/05/15 16:14:43;;;;;;;2.88;2.55;;;23.60;59.70;;;;;;4860264;29;20065;-79
2021/05/15 16:17:11;;;;;;;5.00;2.65;;;23.60;59.20;;;;;;4861251;29;20046;-77
2021/05/15 16:19:37;;;;;;;5.38;2.63;;;23.60;59.10;;;;;;4860693;29;20074;-80
2021/05/15 16:22:03;;;;;;;6.00;2.47;;;23.50;59.40;;;;;;4844126;29;20093;-79
2021/05/15 16:24:30;;;;;;;4.55;2.17;;;23.50;59.70;;;;;;4859812;29;20042;-74
2021/05/15 16:26:56;;;;;;;2.75;1.98;;;23.40;59.10;;;;;;4860168;29;20086;-70
2021/05/15 16:29:23;;;;;;;2.90;1.70;;;23.40;58.80;;;;;;4843362;29;20586;-72
2021/05/15 16:31:48;;;;;;;2.88;2.00;;;23.30;58.40;;;;;;4860384;29;20125;-71
2021/05/15 16:34:14;;;;;;;4.47;1.55;;;23.20;58.60;;;;;;4859842;29;20132;-72
2021/05/15 16:36:46;;;;;;;3.80;1.90;;;23.10;58.70;;;;;;4860046;29;20050;-73
2021/05/15 16:39:14;;;;;;;4.38;1.73;;;23.10;58.60;;;;;;4859690;29;20518;-71
2021/05/15 16:41:40;;;;;;;2.35;1.70;;;23.10;58.40;;;;;;4842832;29;20049;-72
2021/05/15 16:44:07;;;;;;;4.82;1.90;;;23.10;58.10;;;;;;4843168;29;20052;-71
2021/05/15 16:46:33;;;;;;;4.05;2.08;;;23.00;58.40;;;;;;4843256;29;20045;-72
2021/05/15 16:49:00;;;;;;;3.38;1.70;;;23.00;58.80;;;;;;4827786;29;20060;-71
2021/05/15 16:51:27;;;;;;;3.05;1.65;;;23.00;58.80;;;;;;4843123;29;20049;-74
2021/05/15 16:53:54;;;;;;;1.70;1.40;;;22.90;58.90;;;;;;4843235;29;20033;-73
2021/05/15 16:56:21;;;;;;;4.15;1.70;;;22.90;58.60;;;;;;4859497;29;20042;-75
2021/05/15 16:58:47;;;;;;;4.85;1.75;;;22.80;58.60;;;;;;4843286;29;20048;-74
2021/05/15 17:01:15;;;;;;;3.85;2.00;;;22.80;58.60;;;;;;4843217;29;20412;-72
2021/05/15 17:03:42;;;;;;;6.40;1.88;;;22.80;58.50;;;;;;4859446;29;20033;-73
2021/05/15 17:06:09;;;;;;;3.72;1.75;;;22.70;58.70;;;;;;4843027;29;20135;-72
2021/05/15 17:08:35;;;;;;;2.55;2.00;;;22.70;59.10;;;;;;4843241;29;20052;-72
2021/05/15 17:11:02;;;;;;;3.72;1.67;;;22.60;59.40;;;;;;4860869;29;20049;-72
2021/05/15 17:13:28;;;;;;;2.45;1.70;;;22.60;59.30;;;;;;4846372;29;20045;-73
2021/05/15 17:15:55;;;;;;;3.05;1.80;;;22.50;59.60;;;;;;4862790;29;20617;-72
2021/05/15 17:18:23;;;;;;;3.60;2.08;;;22.50;59.50;;;;;;4846211;29;20033;-73
2021/05/15 17:20:50;;;;;;;3.72;2.20;;;22.40;59.70;;;;;;4846206;29;20085;-74
2021/05/15 17:23:16;;;;;;;3.15;2.30;;;22.30;60.40;;;;;;4830817;29;20034;-71
2021/05/15 17:25:43;;;;;;;4.35;2.20;;;22.30;60.50;;;;;;4862638;29;20519;-74
2021/05/15 17:28:09;;;;;;;4.93;2.42;;;22.30;60.40;;;;;;4846183;29;20080;-73
2021/05/15 17:30:36;;;;;;;4.10;3.20;;;22.30;60.20;;;;;;4830876;29;20494;-72
2021/05/15 17:33:02;;;;;;;5.15;2.60;;;22.30;59.80;;;;;;4862632;29;20155;-71
2021/05/15 17:35:28;;;;;;;4.50;2.60;;;22.20;59.10;;;;;;4862341;29;20544;-73
2021/05/15 17:37:55;;;;;;;3.28;2.05;;;22.20;58.80;;;;;;4862494;29;20088;-76
2021/05/15 17:40:21;;;;;;;3.90;2.17;;;22.10;58.80;;;;;;4830370;29;20048;-76
2021/05/15 17:42:47;;;;;;;2.72;2.05;;;22.10;58.80;;;;;;4862703;29;20049;-73
2021/05/15 17:45:14;;;;;;;2.38;1.73;;;22.00;58.80;;;;;;4845717;29;20387;-74
2021/05/15 17:47:41;;;;;;;3.78;2.17;;;22.00;59.00;;;;;;4845603;29;20566;-72
2021/05/15 17:50:09;;;;;;;3.50;2.03;;;21.90;59.10;;;;;;4845747;29;20042;-74
2021/05/15 17:52:36;;;;;;;3.95;2.40;;;21.90;59.30;;;;;;4845480;29;20089;-74
2021/05/15 17:55:03;;;;;;;4.60;2.58;;;21.80;59.30;;;;;;4830015;29;20041;-73
2021/05/15 17:57:29;;;;;;;8.88;3.03;;;21.70;59.70;;;;;;4845463;29;20502;-74
2021/05/15 17:59:57;;;;;;;3.92;2.75;;;21.80;59.70;;;;;;4862333;29;20078;-75
2021/05/15 18:02:25;;;;;;;4.80;2.83;;;21.70;59.90;;;;;;4845128;29;20428;-74
2021/05/15 18:04:53;;;;;;;9.13;2.80;;;21.70;60.10;;;;;;4829736;29;20037;-74
2021/05/15 18:07:20;;;;;;;7.97;3.17;;;21.60;60.30;;;;;;4845395;29;20037;-76
2021/05/15 18:09:47;;;;;;;5.50;3.08;;;21.60;60.40;;;;;;4845340;29;20045;-75
2021/05/15 18:12:13;;;;;;;9.63;4.35;;;21.50;60.80;;;;;;4845072;29;20065;-75
2021/05/15 18:14:40;;;;;;;7.47;3.50;;;21.50;60.80;;;;;;4845040;29;20514;-75
2021/05/15 18:17:07;;;;;;;7.65;4.22;;;21.40;61.20;;;;;;4860611;29;20112;-74
2021/05/15 18:19:33;;;;;;;7.22;3.78;;;21.40;61.40;;;;;;4844790;29;20045;-74
2021/05/15 18:22:00;;;;;;;7.38;3.75;;;21.30;61.60;;;;;;4861523;29;20045;-75
2021/05/15 18:24:27;;;;;;;5.75;3.85;;;21.30;61.90;;;;;;4844376;29;20045;-75
2021/05/15 18:26:54;;;;;;;6.22;3.05;;;21.30;62.00;;;;;;4860174;29;20064;-76
2021/05/15 18:29:20;;;;;;;9.77;3.90;;;21.20;62.20;;;;;;4844328;29;20137;-74
2021/05/15 18:31:46;;;;;;;9.82;3.80;;;21.20;62.40;;;;;;4861031;29;20515;-75
2021/05/15 18:34:12;;;;;;;9.35;5.18;;;21.10;62.70;;;;;;4844557;29;20045;-75
2021/05/15 18:36:38;;;;;;;6.97;4.95;;;21.00;63.00;;;;;;4844479;29;20040;-75
2021/05/15 18:39:10;;;;;;;6.25;4.18;;;21.00;63.10;;;;;;4860733;29;20041;-76
2021/05/15 18:41:36;;;;;;;6.43;3.85;;;20.90;62.90;;;;;;4829201;29;20041;-74
2021/05/15 18:44:04;;;;;;;6.28;3.50;;;20.90;62.90;;;;;;4844454;29;20041;-75
2021/05/15 18:46:32;;;;;;;9.77;4.22;;;20.90;63.30;;;;;;4861578;29;20120;-75
2021/05/15 18:48:59;;;;;;;7.85;4.05;;;20.90;63.50;;;;;;4844577;29;20132;-75
2021/05/15 18:51:27;;;;;;;7.55;4.80;;;20.80;63.60;;;;;;4860985;29;20050;-75
2021/05/15 18:53:54;;;;;;;8.73;4.00;;;20.80;63.80;;;;;;4844784;29;20041;-75
2021/05/15 18:56:21;;;;;;;7.38;3.97;;;20.80;63.90;;;;;;4829271;29;20037;-76
2021/05/15 18:58:47;;;;;;;5.63;3.75;;;20.70;64.30;;;;;;4829376;29;20065;-75
2021/05/15 19:01:13;;;;;;;8.05;3.90;;;20.60;64.40;;;;;;4829224;29;20069;-74
2021/05/15 19:03:39;;;;;;;11.90;4.45;;;20.60;64.50;;;;;;4860697;29;20940;-74
2021/05/15 19:06:07;;;;;;;4.90;3.78;;;20.60;64.70;;;;;;4844379;29;20069;-75
2021/05/15 19:08:35;;;;;;;7.18;4.13;;;20.60;64.80;;;;;;4859552;29;20033;-75
2021/05/15 19:11:03;;;;;;;10.18;4.47;;;20.50;65.10;;;;;;4828996;29;20075;-75
2021/05/15 19:13:29;;;;;;;9.13;4.30;;;20.50;65.30;;;;;;4829241;29;20085;-76
2021/05/15 19:15:56;;;;;;;7.97;4.22;;;20.40;65.50;;;;;;4840919;29;20087;-75
2021/05/15 19:18:22;;;;;;;6.88;4.45;;;20.40;65.70;;;;;;4825886;29;20129;-74
2021/05/15 19:20:53;;;;;;;10.02;4.53;;;20.40;65.90;;;;;;4825624;29;20114;-76
2021/05/15 19:23:20;;;;;;;10.93;4.57;;;20.40;65.90;;;;;;4840731;29;20092;-73
2021/05/15 19:25:46;;;;;;;7.57;4.43;;;20.30;66.20;;;;;;4841069;29;20037;-77
2021/05/15 19:28:12;;;;;;;7.90;4.63;;;20.30;66.20;;;;;;4841266;29;20038;-75
2021/05/15 19:30:38;;;;;;;8.52;4.75;;;20.20;66.30;;;;;;4840795;29;20049;-74
2021/05/15 19:33:11;;;;;;;9.40;4.32;;;20.20;66.60;;;;;;4841356;29;20418;-75
2021/05/15 19:35:37;;;;;;;9.20;4.70;;;20.20;66.70;;;;;;4825941;29;20038;-75
2021/05/15 19:38:03;;;;;;;13.68;9.52;;;20.20;66.60;;;;;;4825827;29;20495;-74
2021/05/15 19:40:29;;;;;;;10.30;6.75;;;20.20;66.80;;;;;;4842209;29;20062;-74
2021/05/15 19:42:55;;;;;;;13.40;6.20;;;20.10;66.90;;;;;;4840877;29;20050;-75
2021/05/15 19:45:20;;;;;;;10.88;5.60;;;20.10;67.00;;;;;;4842111;29;20104;-75
2021/05/15 19:47:46;;;;;;;11.52;8.05;;;20.10;67.20;;;;;;4841786;29;20041;-75
2021/05/15 19:50:12;;;;;;;12.15;6.00;;;20.10;67.30;;;;;;4842346;29;20053;-74
2021/05/15 19:52:41;;;;;;;9.45;6.20;;;20.10;67.40;;;;;;4840474;29;20105;-75
2021/05/15 19:55:09;;;;;;;13.80;5.63;;;20.10;67.50;;;;;;4825886;29;20038;-76
2021/05/15 19:57:35;;;;;;;8.98;5.60;;;20.00;67.70;;;;;;4841796;29;20066;-73
2021/05/15 20:00:01;;;;;;;10.43;5.45;;;19.90;68.00;;;;;;4841868;29;20045;-71
2021/05/15 20:02:27;;;;;;;9.00;5.78;;;19.90;68.40;;;;;;4825238;29;20033;-72
2021/05/15 20:04:53;;;;;;;7.72;5.63;;;19.90;67.70;;;;;;4842176;29;20045;-71
2021/05/15 20:07:19;;;;;;;9.57;5.18;;;19.90;67.80;;;;;;4840999;29;20045;-72
2021/05/15 20:09:45;;;;;;;5.18;4.68;;;19.80;67.70;;;;;;4840512;29;20058;-71
2021/05/15 20:12:12;;;;;;;8.23;5.05;;;19.80;67.70;;;;;;4841689;29;20461;-71
2021/05/15 20:14:38;;;;;;;8.20;4.70;;;19.80;67.80;;;;;;4842313;29;20042;-73
2021/05/15 20:17:06;;;;;;;6.20;4.35;;;19.70;67.80;;;;;;4858729;29;20049;-72
2021/05/15 20:19:33;;;;;;;6.03;5.07;;;19.80;67.90;;;;;;4843411;29;20426;-72
2021/05/15 20:21:59;;;;;;;6.18;4.72;;;19.70;68.00;;;;;;4859997;29;20046;-71
2021/05/15 20:24:26;;;;;;;6.13;5.22;;;19.70;68.10;;;;;;4843765;29;20124;-71
2021/05/15 20:26:52;;;;;;;7.43;5.25;;;19.70;68.10;;;;;;4843406;29;20094;-71
2021/05/15 20:29:18;;;;;;;9.10;5.82;;;19.60;68.40;;;;;;4828048;29;20033;-72
2021/05/15 20:31:44;;;;;;;6.80;5.78;;;19.60;68.60;;;;;;4843221;29;20045;-74
2021/05/15 20:34:10;;;;;;;6.07;5.20;;;19.50;68.60;;;;;;4843684;29;20037;-72
2021/05/15 20:36:37;;;;;;;9.57;5.50;;;19.50;68.80;;;;;;4843561;29;20483;-72
2021/05/15 20:39:05;;;;;;;7.65;5.75;;;19.50;68.90;;;;;;4843504;29;20121;-73
2021/05/15 20:41:32;;;;;;;7.78;5.80;;;19.50;69.10;;;;;;4859883;29;20049;-72
2021/05/15 20:43:58;;;;;;;11.38;8.77;;;19.40;69.40;;;;;;4843493;29;20049;-71
2021/05/15 20:46:24;;;;;;;7.50;6.68;;;19.40;69.40;;;;;;4846896;29;20033;-71
2021/05/15 20:48:53;;;;;;;11.23;6.18;;;19.30;69.60;;;;;;4847066;29;20041;-70
2021/05/15 20:51:21;;;;;;;8.90;6.47;;;19.30;69.70;;;;;;4846890;29;20140;-70
2021/05/15 20:53:48;;;;;;;7.80;6.55;;;19.20;69.70;;;;;;4831339;29;20448;-71
2021/05/15 20:56:15;;;;;;;9.50;7.15;;;19.20;69.80;;;;;;4846574;29;20048;-70
2021/05/15 20:58:43;;;;;;;8.73;5.95;;;19.20;69.80;;;;;;4863053;29;20037;-71
2021/05/15 21:01:09;;;;;;;7.60;5.80;;;19.20;69.80;;;;;;4846385;29;20041;-70
2021/05/15 21:03:36;;;;;;;7.30;6.10;;;19.20;69.90;;;;;;4846595;29;20049;-71
2021/05/15 21:06:02;;;;;;;6.95;6.05;;;19.20;70.10;;;;;;4863219;29;20045;-71
2021/05/15 21:08:28;;;;;;;7.35;6.25;;;19.20;70.10;;;;;;4830964;29;20034;-71
2021/05/15 21:10:54;;;;;;;7.97;6.80;;;19.20;70.20;;;;;;4862900;29;20049;-71
2021/05/15 21:13:20;;;;;;;8.32;5.93;;;19.10;70.40;;;;;;4862865;29;20078;-71
2021/05/15 21:15:48;;;;;;;8.13;5.90;;;19.10;70.40;;;;;;4862686;29;20057;-72
2021/05/15 21:18:14;;;;;;;7.30;5.68;;;19.10;70.50;;;;;;4846837;29;20045;-72
2021/05/15 21:20:41;;;;;;;6.43;5.82;;;19.10;70.50;;;;;;4862847;29;20499;-72
2021/05/15 21:23:09;;;;;;;9.48;5.97;;;19.00;71.20;;;;;;4846764;29;20038;-71
2021/05/15 21:25:38;;;;;;;6.97;6.28;;;19.00;70.70;;;;;;4830740;29;20042;-70
2021/05/15 21:28:06;;;;;;;7.70;5.70;;;19.00;70.60;;;;;;4862594;29;20486;-72
2021/05/15 21:30:34;;;;;;;9.57;6.93;;;19.00;70.60;;;;;;4846018;29;20494;-71
2021/05/15 21:33:00;;;;;;;6.70;5.65;;;19.00;70.70;;;;;;4830812;29;20049;-71
2021/05/15 21:35:26;;;;;;;7.38;6.25;;;19.00;70.80;;;;;;4830721;29;20033;-71
2021/05/15 21:37:53;;;;;;;7.05;6.35;;;19.00;71.00;;;;;;4830831;29;20037;-71
2021/05/15 21:40:20;;;;;;;6.90;6.20;;;19.00;71.00;;;;;;4846041;29;20090;-70
2021/05/15 21:42:46;;;;;;;8.98;6.20;;;19.00;71.00;;;;;;4845935;29;20052;-71
2021/05/15 21:45:16;;;;;;;9.18;5.78;;;18.90;71.00;;;;;;4862645;29;20136;-71
2021/05/15 21:47:43;;;;;;;8.68;6.30;;;18.90;71.40;;;;;;4862301;29;20041;-71
2021/05/15 21:50:11;;;;;;;9.75;7.15;;;18.90;71.40;;;;;;4862442;29;20048;-70
2021/05/15 21:52:38;;;;;;;8.07;6.47;;;18.80;71.50;;;;;;4830284;29;20045;-71
2021/05/15 21:55:07;;;;;;;10.43;6.72;;;18.80;71.60;;;;;;4862253;29;20569;-70
2021/05/15 21:57:33;;;;;;;7.18;6.47;;;18.80;71.80;;;;;;4845103;29;20120;-71
2021/05/15 22:00:00;;;;;;;9.45;6.82;;;18.80;71.90;;;;;;4862250;29;20034;-70
2021/05/15 22:02:26;;;;;;;7.63;6.60;;;18.70;71.90;;;;;;4830287;29;20048;-71
2021/05/15 22:04:53;;;;;;;8.45;7.35;;;18.70;72.00;;;;;;4862265;29;20042;-72
2021/05/15 22:07:19;;;;;;;11.98;7.47;;;18.70;72.00;;;;;;4845634;29;20490;-72
2021/05/15 22:09:45;;;;;;;9.57;6.85;;;18.70;72.60;;;;;;4845454;29;20140;-71
2021/05/15 22:12:11;;;;;;;9.80;7.20;;;18.70;72.00;;;;;;4861726;29;20041;-71
2021/05/15 22:14:38;;;;;;;8.48;6.65;;;18.70;72.10;;;;;;4845368;29;20041;-72
2021/05/15 22:17:05;;;;;;;10.30;6.70;;;18.60;72.10;;;;;;4845797;29;20084;-70
2021/05/15 22:19:31;;;;;;;8.98;7.50;;;18.60;72.30;;;;;;4845197;29;20046;-71
2021/05/15 22:21:58;;;;;;;11.00;6.85;;;18.60;72.40;;;;;;4861703;29;20093;-70
2021/05/15 22:24:24;;;;;;;10.43;7.05;;;18.60;72.40;;;;;;4829824;29;20078;-71
2021/05/15 22:26:51;;;;;;;8.25;7.47;;;18.60;72.40;;;;;;4845000;29;20498;-71
2021/05/15 22:29:17;;;;;;;14.93;7.43;;;18.60;72.50;;;;;;4845334;29;20120;-72
2021/05/15 22:31:43;;;;;;;9.20;7.43;;;18.50;72.80;;;;;;4844989;29;20090;-70
2021/05/15 22:34:09;;;;;;;8.75;6.63;;;18.60;72.50;;;;;;4861498;29;20052;-71
2021/05/15 22:36:35;;;;;;;8.05;6.75;;;18.60;72.40;;;;;;4844982;29;20041;-71
2021/05/15 22:39:03;;;;;;;8.90;6.75;;;18.60;72.30;;;;;;4861412;29;20075;-71
2021/05/15 22:41:28;;;;;;;8.35;6.97;;;18.60;72.20;;;;;;4829581;29;20569;-70
2021/05/15 22:43:56;;;;;;;10.38;7.10;;;18.60;72.20;;;;;;4844794;29;20128;-71
2021/05/15 22:46:23;;;;;;;9.18;7.03;;;18.60;72.20;;;;;;4844789;29;20041;-72
2021/05/15 22:48:49;;;;;;;8.38;6.80;;;18.60;72.20;;;;;;4845235;29;20495;-71
2021/05/15 22:51:18;;;;;;;9.07;7.47;;;18.60;72.30;;;;;;4861129;29;20049;-71
2021/05/15 22:53:50;;;;;;;9.75;7.65;;;18.60;72.20;;;;;;4844481;29;20132;-72
2021/05/15 22:56:17;;;;;;;12.98;7.85;;;18.50;72.30;;;;;;4861157;29;20463;-71
2021/05/15 22:58:43;;;;;;;10.60;8.02;;;18.60;72.40;;;;;;4844818;29;20052;-71
2021/05/15 23:01:09;;;;;;;7.63;6.82;;;18.60;72.40;;;;;;4861275;29;20034;-71
2021/05/15 23:03:36;;;;;;;8.75;6.90;;;18.60;72.40;;;;;;4829311;29;20502;-70